Time;durP1;ratioP1;P1;durP2;ratioP2;P2;SDS_P1;SDS_P2;PMS_P1;PMS_P2;Temp;Humidity;BMP_temperature;BMP_pressure;BME280_temperature;BME280_humidity;BME280_pressure;Samples;Min_cycle;Max_cycle;Signal;HPM_P1;HPM_P2
2023/05/13 00:01:40;;;;;;;4.03;3.63;;;15.60;99.90;;;;;;4969181;28;20256;-66
2023/05/13 00:04:07;;;;;;;3.88;3.50;;;15.60;99.90;;;;;;4953597;28;20239;-66
2023/05/13 00:06:33;;;;;;;5.05;3.50;;;15.50;99.90;;;;;;4968872;28;20181;-64
2023/05/13 00:08:59;;;;;;;4.15;3.63;;;15.50;99.90;;;;;;4962889;28;20181;-67
2023/05/13 00:11:25;;;;;;;4.05;3.65;;;15.50;99.90;;;;;;4952108;29;20199;-64
2023/05/13 00:13:53;;;;;;;4.85;3.78;;;15.50;99.90;;;;;;4954402;29;20177;-67
2023/05/13 00:16:24;;;;;;;4.40;4.00;;;15.50;99.90;;;;;;4965591;28;20263;-62
2023/05/13 00:18:51;;;;;;;5.10;3.72;;;15.50;99.90;;;;;;4966112;28;20192;-65
2023/05/13 00:21:17;;;;;;;5.38;3.90;;;15.50;99.90;;;;;;4957877;28;20208;-64
2023/05/13 00:23:43;;;;;;;4.30;3.72;;;15.50;99.90;;;;;;4969865;28;20187;-67
2023/05/13 00:26:08;;;;;;;4.30;3.80;;;15.50;99.90;;;;;;4955997;28;20176;-66
2023/05/13 00:28:34;;;;;;;4.38;3.83;;;15.40;99.90;;;;;;4959016;28;20279;-66
2023/05/13 00:31:04;;;;;;;3.88;3.50;;;15.40;99.90;;;;;;4958938;29;20181;-65
2023/05/13 00:33:32;;;;;;;4.07;3.60;;;15.40;99.90;;;;;;4964345;28;20173;-69
2023/05/13 00:35:58;;;;;;;5.13;3.63;;;15.40;99.90;;;;;;4954428;29;20176;-67
2023/05/13 00:38:25;;;;;;;5.72;3.90;;;15.40;99.90;;;;;;4970387;28;20244;-67
2023/05/13 00:40:53;;;;;;;4.20;3.80;;;15.30;99.90;;;;;;4949656;28;20176;-66
2023/05/13 00:43:21;;;;;;;4.35;3.95;;;15.30;99.90;;;;;;4958793;28;20200;-67
2023/05/13 00:45:47;;;;;;;4.40;4.00;;;15.30;99.90;;;;;;4944097;28;20202;-67
2023/05/13 00:48:13;;;;;;;5.55;3.90;;;15.30;99.90;;;;;;4951504;28;20195;-67
2023/05/13 00:50:41;;;;;;;4.32;3.92;;;15.30;99.90;;;;;;4949081;29;20177;-64
2023/05/13 00:53:09;;;;;;;6.13;4.13;;;15.30;99.90;;;;;;4954552;28;20196;-66
2023/05/13 00:55:39;;;;;;;5.05;3.92;;;15.30;99.90;;;;;;4970747;28;20177;-67
2023/05/13 00:58:05;;;;;;;4.40;4.00;;;15.20;99.90;;;;;;4956251;29;20178;-68
2023/05/13 01:00:36;;;;;;;3.95;3.55;;;15.20;99.90;;;;;;4973616;28;20187;-67
2023/05/13 01:03:11;;;;;;;4.60;4.20;;;15.20;99.90;;;;;;4973199;28;20197;-65
2023/05/13 01:06:00;;;;;;;5.57;4.00;;;15.20;99.90;;;;;;4971660;28;20172;-66
2023/05/13 01:08:45;;;;;;;5.55;4.25;;;15.20;99.90;;;;;;4972655;28;20169;-66
2023/05/13 01:11:26;;;;;;;5.57;4.15;;;15.30;99.90;;;;;;4965845;28;20196;-66
2023/05/13 01:14:04;;;;;;;4.20;3.80;;;15.20;99.90;;;;;;4972012;28;20172;-63
2023/05/13 01:16:37;;;;;;;4.78;4.00;;;15.20;99.90;;;;;;4961459;28;20178;-66
2023/05/13 01:19:19;;;;;;;5.88;4.18;;;15.20;99.90;;;;;;4942330;29;20196;-65
2023/05/13 01:21:55;;;;;;;4.18;3.78;;;15.10;99.90;;;;;;4966323;28;20280;-65
2023/05/13 01:24:23;;;;;;;4.60;3.90;;;15.10;99.90;;;;;;4954662;29;20187;-66
2023/05/13 01:26:49;;;;;;;5.07;4.20;;;15.10;99.90;;;;;;4966812;28;20235;-64
2023/05/13 01:29:15;;;;;;;4.10;3.70;;;15.10;99.90;;;;;;4966570;28;20205;-66
2023/05/13 01:31:45;;;;;;;5.05;3.90;;;15.10;99.90;;;;;;4954264;29;20471;-64
2023/05/13 01:34:14;;;;;;;4.13;3.75;;;15.00;99.90;;;;;;4959881;28;20282;-64
2023/05/13 01:36:40;;;;;;;4.65;3.70;;;15.00;99.90;;;;;;4950557;28;20191;-65
2023/05/13 01:39:10;;;;;;;4.20;3.78;;;15.00;99.90;;;;;;4968147;28;20185;-66
2023/05/13 01:41:36;;;;;;;6.05;4.80;;;14.90;99.90;;;;;;4955744;28;20208;-65
2023/05/13 01:44:04;;;;;;;4.40;3.95;;;14.90;99.90;;;;;;4951138;29;20195;-66
2023/05/13 01:46:32;;;;;;;4.10;3.70;;;14.90;99.90;;;;;;4957283;28;20185;-66
2023/05/13 01:48:58;;;;;;;4.25;3.85;;;14.90;99.90;;;;;;4952394;29;20184;-66
2023/05/13 01:51:26;;;;;;;4.28;3.85;;;14.90;99.90;;;;;;4972799;28;20184;-66
2023/05/13 01:53:51;;;;;;;4.00;3.60;;;14.80;99.90;;;;;;4962829;28;20284;-65
2023/05/13 01:56:17;;;;;;;4.53;4.03;;;14.80;99.90;;;;;;4954037;28;20269;-65
2023/05/13 01:58:42;;;;;;;4.57;4.18;;;14.80;99.90;;;;;;4956964;28;20204;-64
2023/05/13 02:01:11;;;;;;;4.18;3.72;;;14.80;99.90;;;;;;4964003;28;20197;-63
2023/05/13 02:03:38;;;;;;;4.80;3.85;;;14.80;99.90;;;;;;4948792;29;20174;-65
2023/05/13 02:06:06;;;;;;;4.10;3.70;;;14.70;99.90;;;;;;4970928;28;20204;-67
2023/05/13 02:08:34;;;;;;;3.95;3.55;;;14.70;99.90;;;;;;4967989;28;20208;-64
2023/05/13 02:11:00;;;;;;;4.10;3.67;;;14.60;99.90;;;;;;4948267;28;20199;-65
2023/05/13 02:13:26;;;;;;;4.28;3.53;;;14.60;99.90;;;;;;4947212;29;20180;-65
2023/05/13 02:15:52;;;;;;;4.20;3.75;;;14.60;99.90;;;;;;4954445;29;20173;-63
2023/05/13 02:18:18;;;;;;;4.20;3.80;;;14.60;99.90;;;;;;4972245;28;20189;-65
2023/05/13 02:20:45;;;;;;;3.97;3.58;;;14.60;99.90;;;;;;4970294;28;20196;-65
2023/05/13 02:23:10;;;;;;;4.80;3.97;;;14.50;99.90;;;;;;4948125;28;20212;-65
2023/05/13 02:25:38;;;;;;;4.28;3.88;;;14.50;99.90;;;;;;4953093;29;20177;-65
2023/05/13 02:28:07;;;;;;;3.50;3.20;;;14.50;99.90;;;;;;4953645;28;20189;-66
2023/05/13 02:30:32;;;;;;;3.90;3.58;;;14.40;99.90;;;;;;4967841;28;20194;-66
2023/05/13 02:32:59;;;;;;;5.80;3.90;;;14.50;99.90;;;;;;4970946;28;20236;-66
2023/05/13 02:35:28;;;;;;;3.92;3.53;;;14.40;99.90;;;;;;4961849;28;20189;-65
2023/05/13 02:37:54;;;;;;;4.53;3.92;;;14.40;99.90;;;;;;4971570;28;20180;-66
2023/05/13 02:40:22;;;;;;;4.97;4.10;;;14.30;99.90;;;;;;4972253;28;20185;-66
2023/05/13 02:42:47;;;;;;;4.13;3.72;;;14.30;99.90;;;;;;4971634;28;20196;-64
2023/05/13 02:45:13;;;;;;;4.47;3.88;;;14.30;99.90;;;;;;4968720;28;20276;-66
2023/05/13 02:47:39;;;;;;;4.32;3.92;;;14.30;99.90;;;;;;4948157;28;20284;-66
2023/05/13 02:50:06;;;;;;;6.22;4.60;;;14.20;99.90;;;;;;4971579;28;20279;-66
2023/05/13 02:52:35;;;;;;;5.13;4.45;;;14.10;99.90;;;;;;4938301;29;20184;-65
2023/05/13 02:55:08;;;;;;;4.72;4.10;;;14.10;99.90;;;;;;4956001;28;20200;-66
2023/05/13 02:57:34;;;;;;;4.43;4.00;;;14.10;99.90;;;;;;4953688;28;20184;-66
2023/05/13 03:00:04;;;;;;;4.18;3.78;;;14.00;99.90;;;;;;4950207;29;20207;-66
2023/05/13 03:02:37;;;;;;;5.65;3.92;;;14.00;99.90;;;;;;4953160;28;20227;-65
2023/05/13 03:05:02;;;;;;;4.53;3.60;;;14.00;99.90;;;;;;4968879;28;20185;-61
2023/05/13 03:07:28;;;;;;;5.00;4.20;;;13.90;99.90;;;;;;4972048;28;20181;-66
2023/05/13 03:09:54;;;;;;;4.50;4.10;;;13.90;99.90;;;;;;4967598;28;20188;-65
2023/05/13 03:12:20;;;;;;;4.47;4.07;;;13.90;99.90;;;;;;4954254;28;20283;-66
2023/05/13 03:14:50;;;;;;;4.55;4.15;;;13.80;99.90;;;;;;4956469;28;20183;-66
2023/05/13 03:17:18;;;;;;;4.30;3.90;;;13.80;99.90;;;;;;4969457;28;20231;-64
2023/05/13 03:19:44;;;;;;;4.13;3.75;;;13.70;99.90;;;;;;4952999;29;20247;-65
2023/05/13 03:22:09;;;;;;;4.70;3.72;;;13.70;99.90;;;;;;4967621;28;20208;-66
2023/05/13 03:24:35;;;;;;;4.93;4.43;;;13.60;99.90;;;;;;4966157;28;20281;-65
2023/05/13 03:27:00;;;;;;;6.22;5.00;;;13.60;99.90;;;;;;4948412;29;20180;-68
2023/05/13 03:29:31;;;;;;;6.07;5.15;;;13.50;99.90;;;;;;4968389;28;20248;-65
2023/05/13 03:31:57;;;;;;;6.75;5.43;;;13.50;99.90;;;;;;4967523;28;20201;-64
2023/05/13 03:34:23;;;;;;;7.53;5.80;;;13.50;99.90;;;;;;4952903;28;20190;-66
2023/05/13 03:36:51;;;;;;;6.30;5.43;;;13.40;99.90;;;;;;4963451;28;20189;-61
2023/05/13 03:39:16;;;;;;;6.28;5.28;;;13.40;99.90;;;;;;4956503;28;20200;-66
2023/05/13 03:41:44;;;;;;;6.45;5.53;;;13.40;99.90;;;;;;4966778;28;20203;-66
2023/05/13 03:44:10;;;;;;;7.43;5.75;;;13.30;99.90;;;;;;4955737;28;20257;-66
2023/05/13 03:46:35;;;;;;;8.00;6.07;;;13.30;99.90;;;;;;4966158;28;20271;-66
2023/05/13 03:49:02;;;;;;;6.20;5.45;;;13.30;99.90;;;;;;4969410;28;20185;-66
2023/05/13 03:51:27;;;;;;;5.95;5.25;;;13.30;99.90;;;;;;4953831;29;20209;-65
2023/05/13 03:53:53;;;;;;;6.10;5.00;;;13.20;99.90;;;;;;4969067;28;20188;-65
2023/05/13 03:56:18;;;;;;;5.68;5.07;;;13.20;99.90;;;;;;4970634;28;20185;-66
2023/05/13 03:58:49;;;;;;;6.13;5.25;;;13.20;99.90;;;;;;4970736;28;20215;-66
2023/05/13 04:01:16;;;;;;;6.57;5.40;;;13.20;99.90;;;;;;4956083;28;20287;-66
2023/05/13 04:03:45;;;;;;;6.38;4.95;;;13.10;99.90;;;;;;4959888;28;20287;-65
2023/05/13 04:06:13;;;;;;;6.20;4.65;;;13.10;99.90;;;;;;4972678;28;20196;-66
2023/05/13 04:08:45;;;;;;;7.38;4.90;;;13.10;99.90;;;;;;4974088;28;20181;-65
2023/05/13 04:11:13;;;;;;;6.18;5.32;;;13.10;99.90;;;;;;4970876;28;20204;-66
2023/05/13 04:13:44;;;;;;;5.63;4.80;;;13.10;99.90;;;;;;4973961;28;20176;-65
2023/05/13 04:16:13;;;;;;;5.53;4.80;;;13.10;99.90;;;;;;4960096;28;20284;-66
2023/05/13 04:18:38;;;;;;;5.78;4.82;;;13.10;99.90;;;;;;4959306;28;20199;-65
2023/05/13 04:21:08;;;;;;;6.45;5.20;;;13.10;99.90;;;;;;4969419;28;20184;-67
2023/05/13 04:23:35;;;;;;;6.00;4.80;;;13.10;99.90;;;;;;4975050;28;20232;-66
2023/05/13 04:26:01;;;;;;;5.05;4.55;;;13.00;99.90;;;;;;4969717;28;20181;-68
2023/05/13 04:28:27;;;;;;;5.80;4.78;;;13.10;99.90;;;;;;4947071;29;20263;-64
2023/05/13 04:30:53;;;;;;;5.30;4.80;;;13.00;99.90;;;;;;4974538;28;20207;-66
2023/05/13 04:33:21;;;;;;;5.43;4.85;;;13.00;99.90;;;;;;4974394;28;20215;-65
2023/05/13 04:35:47;;;;;;;6.03;5.43;;;13.10;99.90;;;;;;4959444;28;20200;-65
2023/05/13 04:38:13;;;;;;;6.53;5.63;;;13.00;99.90;;;;;;4977483;28;20180;-65
2023/05/13 04:40:38;;;;;;;5.80;5.20;;;13.00;99.90;;;;;;4973760;28;20177;-64
2023/05/13 04:43:06;;;;;;;5.80;5.22;;;13.00;99.90;;;;;;4959496;28;20245;-66
2023/05/13 04:45:32;;;;;;;5.88;5.28;;;12.90;99.90;;;;;;4974120;28;20192;-64
2023/05/13 04:47:59;;;;;;;8.30;5.93;;;13.00;99.90;;;;;;4974575;28;20181;-65
2023/05/13 04:50:27;;;;;;;7.25;6.43;;;13.00;99.90;;;;;;4951258;29;20170;-65
2023/05/13 04:52:53;;;;;;;6.85;6.07;;;12.90;99.90;;;;;;4952664;29;20192;-65
2023/05/13 04:55:19;;;;;;;6.53;5.88;;;13.00;99.90;;;;;;4958504;29;20187;-65
2023/05/13 04:57:49;;;;;;;6.40;5.80;;;13.00;99.90;;;;;;4959436;28;20172;-66
2023/05/13 05:00:17;;;;;;;6.50;5.90;;;12.90;99.90;;;;;;4964996;28;20192;-65
2023/05/13 05:02:45;;;;;;;6.57;5.95;;;13.00;99.90;;;;;;4961718;28;20204;-65
2023/05/13 05:05:13;;;;;;;7.38;6.38;;;13.00;99.90;;;;;;4971354;28;20177;-67
2023/05/13 05:07:40;;;;;;;8.05;6.93;;;13.00;99.90;;;;;;4972351;28;20173;-66
2023/05/13 05:10:07;;;;;;;6.82;6.13;;;13.00;99.90;;;;;;4946752;28;20204;-66
2023/05/13 05:12:33;;;;;;;7.82;6.70;;;13.00;99.90;;;;;;4940702;29;20213;-65
2023/05/13 05:14:58;;;;;;;8.15;6.65;;;13.10;99.90;;;;;;4968654;28;20204;-66
2023/05/13 05:17:24;;;;;;;9.00;7.13;;;13.10;99.90;;;;;;4957592;28;20252;-66
2023/05/13 05:19:54;;;;;;;7.97;7.13;;;13.10;99.90;;;;;;4950320;29;20219;-65
2023/05/13 05:22:22;;;;;;;8.27;6.65;;;13.20;99.90;;;;;;4967896;28;20220;-65
2023/05/13 05:24:47;;;;;;;9.52;8.07;;;13.20;99.90;;;;;;4971816;28;20205;-66
2023/05/13 05:27:15;;;;;;;14.02;11.90;;;13.30;99.90;;;;;;4957936;28;20207;-65
2023/05/13 05:29:41;;;;;;;9.93;8.05;;;13.30;99.90;;;;;;4963058;28;20180;-65
2023/05/13 05:32:09;;;;;;;10.63;8.20;;;13.40;99.90;;;;;;4956876;28;20212;-65
2023/05/13 05:34:37;;;;;;;8.98;7.65;;;13.50;99.90;;;;;;4952236;28;20181;-65
2023/05/13 05:37:03;;;;;;;8.45;7.35;;;13.60;99.90;;;;;;4974281;28;20188;-65
2023/05/13 05:39:34;;;;;;;9.55;7.47;;;13.60;99.90;;;;;;4957412;29;20199;-66
2023/05/13 05:42:02;;;;;;;9.32;7.30;;;13.70;99.90;;;;;;4956733;28;20283;-64
2023/05/13 05:44:27;;;;;;;9.18;7.32;;;13.80;99.90;;;;;;4963334;28;20211;-65
2023/05/13 05:46:54;;;;;;;9.63;7.25;;;13.90;99.90;;;;;;4969868;28;20173;-62
2023/05/13 05:49:24;;;;;;;7.70;6.90;;;13.90;99.90;;;;;;4970896;28;20189;-65
2023/05/13 05:51:50;;;;;;;8.40;7.07;;;14.00;99.90;;;;;;4972663;28;20287;-66
2023/05/13 05:54:15;;;;;;;7.88;7.07;;;14.00;99.90;;;;;;4974213;28;20220;-66
2023/05/13 05:56:43;;;;;;;8.68;7.43;;;14.10;99.90;;;;;;4969724;28;20268;-63
2023/05/13 05:59:11;;;;;;;10.70;8.25;;;14.20;99.90;;;;;;4951796;29;20292;-66
2023/05/13 06:01:36;;;;;;;9.55;8.65;;;14.20;99.90;;;;;;4950124;29;20196;-65
2023/05/13 06:04:03;;;;;;;10.43;8.30;;;14.30;99.90;;;;;;4953391;28;20272;-66
2023/05/13 06:06:28;;;;;;;10.57;8.43;;;14.40;99.90;;;;;;4969686;28;20177;-65
2023/05/13 06:08:54;;;;;;;11.45;9.40;;;14.40;99.90;;;;;;4957704;29;20185;-66
2023/05/13 06:11:22;;;;;;;10.48;9.48;;;14.60;99.90;;;;;;4956873;28;20181;-66
2023/05/13 06:13:48;;;;;;;10.13;9.10;;;14.60;99.90;;;;;;4953243;29;20208;-66
2023/05/13 06:16:13;;;;;;;10.60;9.30;;;14.70;99.90;;;;;;4965449;28;20185;-66
2023/05/13 06:18:39;;;;;;;13.60;10.45;;;14.90;99.90;;;;;;4941482;29;20192;-63
2023/05/13 06:21:04;;;;;;;10.95;9.30;;;15.00;99.90;;;;;;4956288;28;20185;-64
2023/05/13 06:23:30;;;;;;;12.38;10.00;;;15.10;99.90;;;;;;4945649;29;20224;-65
2023/05/13 06:25:58;;;;;;;14.90;11.50;;;15.20;99.90;;;;;;4973465;28;20196;-65
2023/05/13 06:28:23;;;;;;;15.27;11.73;;;15.20;99.90;;;;;;4972316;28;20259;-66
2023/05/13 06:30:52;;;;;;;15.82;12.82;;;15.20;99.90;;;;;;4973198;28;20323;-66
2023/05/13 06:33:18;;;;;;;17.60;14.02;;;15.30;99.90;;;;;;4962245;28;20205;-66
2023/05/13 06:35:46;;;;;;;15.82;13.00;;;15.30;99.90;;;;;;4963970;28;20183;-66
2023/05/13 06:38:16;;;;;;;17.20;13.10;;;15.30;99.90;;;;;;4953683;28;20268;-66
2023/05/13 06:40:44;;;;;;;15.60;12.40;;;15.40;99.90;;;;;;4938236;29;20205;-65
2023/05/13 06:43:13;;;;;;;17.83;12.65;;;15.40;99.90;;;;;;4949049;29;20192;-65
2023/05/13 06:45:41;;;;;;;15.15;11.48;;;15.40;99.90;;;;;;4972648;28;20192;-66
2023/05/13 06:48:09;;;;;;;14.65;12.32;;;15.50;99.90;;;;;;4953430;28;20205;-65
2023/05/13 06:50:35;;;;;;;15.02;11.80;;;15.50;99.90;;;;;;4944015;29;20182;-65
2023/05/13 06:53:00;;;;;;;13.52;10.93;;;15.50;99.90;;;;;;4953592;29;20202;-66
2023/05/13 06:55:26;;;;;;;13.13;11.38;;;15.50;99.90;;;;;;4953330;29;20181;-64
2023/05/13 06:57:52;;;;;;;15.38;11.30;;;15.50;99.90;;;;;;4938642;29;20181;-66
2023/05/13 07:00:23;;;;;;;15.02;10.70;;;15.50;99.90;;;;;;4954234;28;20239;-64
2023/05/13 07:02:48;;;;;;;13.88;10.95;;;15.60;99.90;;;;;;4956893;28;20204;-66
2023/05/13 07:05:14;;;;;;;15.40;11.50;;;15.60;99.90;;;;;;4960108;28;20185;-66
2023/05/13 07:07:39;;;;;;;12.43;10.73;;;15.70;99.90;;;;;;4956120;28;20201;-65
2023/05/13 07:10:05;;;;;;;13.13;11.00;;;15.70;99.90;;;;;;4957526;28;20182;-66
2023/05/13 07:12:31;;;;;;;16.65;12.18;;;15.80;99.90;;;;;;4959245;28;20208;-66
2023/05/13 07:14:57;;;;;;;16.02;12.40;;;15.80;99.90;;;;;;4954632;28;20205;-65
2023/05/13 07:17:24;;;;;;;14.40;12.63;;;15.90;99.90;;;;;;4977964;28;20253;-66
2023/05/13 07:19:53;;;;;;;16.92;12.57;;;15.90;99.90;;;;;;4972260;28;20184;-64
2023/05/13 07:22:18;;;;;;;14.60;12.68;;;16.00;99.90;;;;;;4957360;28;20208;-66
2023/05/13 07:24:44;;;;;;;14.98;12.77;;;16.00;99.90;;;;;;4970329;28;20203;-66
2023/05/13 07:27:09;;;;;;;15.02;13.15;;;16.10;99.90;;;;;;4954529;29;20176;-66
2023/05/13 07:29:37;;;;;;;15.85;11.48;;;16.20;99.90;;;;;;4951126;28;20204;-66
2023/05/13 07:32:04;;;;;;;13.88;11.15;;;16.20;99.90;;;;;;4970788;28;20184;-63
2023/05/13 07:34:30;;;;;;;14.13;10.80;;;16.30;99.90;;;;;;4953983;28;20276;-66
2023/05/13 07:37:02;;;;;;;14.57;11.40;;;16.40;99.90;;;;;;4956564;28;20215;-66
2023/05/13 07:39:28;;;;;;;13.98;11.15;;;16.50;99.90;;;;;;4962924;28;20188;-65
2023/05/13 07:41:56;;;;;;;13.48;11.20;;;16.60;99.90;;;;;;4975821;28;20208;-66
2023/05/13 07:44:21;;;;;;;13.10;10.25;;;16.70;99.90;;;;;;4971840;28;20180;-65
2023/05/13 07:46:48;;;;;;;11.15;9.95;;;16.80;99.90;;;;;;4975021;28;20217;-67
2023/05/13 07:49:16;;;;;;;11.50;10.27;;;16.90;99.90;;;;;;4955224;28;20184;-65
2023/05/13 07:51:41;;;;;;;11.52;9.98;;;17.00;99.90;;;;;;4976300;28;20173;-66
2023/05/13 07:54:10;;;;;;;12.25;10.65;;;17.10;99.90;;;;;;4977341;28;20185;-64
2023/05/13 07:56:38;;;;;;;11.75;9.93;;;17.20;99.90;;;;;;4947300;29;20288;-66
2023/05/13 07:59:04;;;;;;;12.10;10.15;;;17.30;99.90;;;;;;4953756;28;20184;-66
2023/05/13 08:01:30;;;;;;;11.25;9.85;;;17.40;99.90;;;;;;4962150;28;20266;-65
2023/05/13 08:03:55;;;;;;;9.60;8.60;;;17.60;99.90;;;;;;4959222;28;20244;-66
2023/05/13 08:06:23;;;;;;;9.15;7.97;;;17.60;99.90;;;;;;4968470;28;20176;-67
2023/05/13 08:08:49;;;;;;;9.68;8.43;;;17.70;99.90;;;;;;4961413;28;20180;-66
2023/05/13 08:11:14;;;;;;;9.68;7.78;;;17.90;99.90;;;;;;4973056;28;20290;-66
2023/05/13 08:13:42;;;;;;;8.93;7.85;;;17.90;99.90;;;;;;4958953;28;20259;-67
2023/05/13 08:16:08;;;;;;;10.40;8.38;;;18.00;99.90;;;;;;4957445;28;20173;-65
2023/05/13 08:18:33;;;;;;;9.35;8.00;;;18.00;99.90;;;;;;4967799;28;20196;-67
2023/05/13 08:20:59;;;;;;;9.57;8.18;;;18.10;99.90;;;;;;4954842;29;20263;-66
2023/05/13 08:23:27;;;;;;;9.52;7.95;;;18.10;99.90;;;;;;4955647;28;20211;-66
2023/05/13 08:25:55;;;;;;;8.18;7.13;;;18.10;99.90;;;;;;4958216;29;20205;-66
2023/05/13 08:28:25;;;;;;;9.52;7.72;;;18.20;99.90;;;;;;4952783;29;20280;-66
2023/05/13 08:30:53;;;;;;;8.70;7.80;;;18.20;99.90;;;;;;4948022;29;20211;-63
2023/05/13 08:33:18;;;;;;;7.90;7.10;;;18.30;99.90;;;;;;4959423;29;20219;-66
2023/05/13 08:35:44;;;;;;;9.85;7.45;;;18.20;99.90;;;;;;4970932;28;20209;-66
2023/05/13 08:38:12;;;;;;;7.47;6.68;;;18.30;99.90;;;;;;4941015;29;20185;-66
2023/05/13 08:40:38;;;;;;;9.15;7.28;;;18.30;99.90;;;;;;4971909;28;20189;-67
2023/05/13 08:43:06;;;;;;;7.78;6.97;;;18.30;99.90;;;;;;4948382;28;20223;-67
2023/05/13 08:45:37;;;;;;;9.13;7.47;;;18.30;99.90;;;;;;4949230;28;20191;-64
2023/05/13 08:48:04;;;;;;;8.63;7.72;;;18.30;99.90;;;;;;4958431;29;20177;-66
2023/05/13 08:50:32;;;;;;;8.40;7.50;;;18.40;99.90;;;;;;4955645;28;20223;-67
2023/05/13 08:53:01;;;;;;;8.07;7.28;;;18.40;99.90;;;;;;4959056;29;20185;-65
2023/05/13 08:55:30;;;;;;;8.30;6.95;;;18.50;99.90;;;;;;4961471;28;20215;-67
2023/05/13 08:57:58;;;;;;;6.75;5.97;;;18.50;99.90;;;;;;4953640;29;20188;-66
2023/05/13 09:00:26;;;;;;;7.57;6.00;;;18.50;99.90;;;;;;4955489;29;20177;-66
2023/05/13 09:02:52;;;;;;;5.65;5.13;;;18.60;99.90;;;;;;4965796;28;20213;-67
2023/05/13 09:05:23;;;;;;;5.90;4.93;;;18.70;99.90;;;;;;4954507;28;20173;-66
2023/05/13 09:07:49;;;;;;;5.28;4.78;;;18.80;99.90;;;;;;4958389;28;20192;-66
2023/05/13 09:10:19;;;;;;;5.20;4.70;;;18.90;99.90;;;;;;4956388;29;20180;-66
2023/05/13 09:12:47;;;;;;;5.22;4.72;;;19.00;99.90;;;;;;4972980;28;20276;-67
2023/05/13 09:15:18;;;;;;;4.85;4.18;;;19.10;99.90;;;;;;4963895;28;20200;-67
2023/05/13 09:17:50;;;;;;;5.75;4.68;;;19.20;99.90;;;;;;4974003;28;20205;-65
2023/05/13 09:20:16;;;;;;;5.03;4.40;;;19.30;99.90;;;;;;4960130;28;20189;-64
2023/05/13 09:23:09;;;;;;;5.35;4.40;;;19.40;99.90;;;;;;4956883;28;20200;-66
2023/05/13 09:25:39;;;;;;;5.07;4.63;;;19.50;99.90;;;;;;4948667;29;20217;-66
2023/05/13 09:28:06;;;;;;;4.60;4.03;;;19.60;99.90;;;;;;4944015;28;20221;-66
2023/05/13 09:30:40;;;;;;;5.20;4.22;;;19.70;99.90;;;;;;4961571;28;20191;-64
2023/05/13 09:33:09;;;;;;;4.25;3.85;;;19.70;99.90;;;;;;4959264;28;20185;-66
2023/05/13 09:35:38;;;;;;;4.75;4.25;;;19.80;99.90;;;;;;4970922;28;20231;-66
2023/05/13 09:38:15;;;;;;;4.32;3.70;;;19.90;99.90;;;;;;4957325;28;20181;-67
2023/05/13 09:40:48;;;;;;;4.40;4.00;;;19.90;99.90;;;;;;4965892;28;20220;-66
2023/05/13 09:43:16;;;;;;;3.50;3.20;;;20.00;99.90;;;;;;4949846;29;20272;-67
2023/05/13 09:45:44;;;;;;;3.30;3.00;;;20.10;99.90;;;;;;4960872;28;20219;-67
2023/05/13 09:48:10;;;;;;;4.53;3.33;;;20.20;99.90;;;;;;4970234;28;20485;-67
2023/05/13 09:50:46;;;;;;;5.80;3.35;;;20.30;99.90;;;;;;4953530;29;20191;-66
2023/05/13 09:53:12;;;;;;;4.22;3.58;;;20.40;99.90;;;;;;4965915;28;20215;-67
2023/05/13 09:55:50;;;;;;;5.45;3.55;;;20.50;99.90;;;;;;4972670;28;20205;-64
2023/05/13 09:58:16;;;;;;;3.58;3.28;;;20.60;99.90;;;;;;4961466;28;20243;-66
2023/05/13 10:00:48;;;;;;;3.63;3.33;;;20.70;99.90;;;;;;4968922;28;20209;-66
2023/05/13 10:03:16;;;;;;;3.40;3.10;;;20.80;99.90;;;;;;4950884;29;20212;-67
2023/05/13 10:05:43;;;;;;;3.30;3.00;;;20.90;99.90;;;;;;4972123;28;20426;-66
2023/05/13 10:08:11;;;;;;;3.70;3.40;;;21.00;99.90;;;;;;4971270;28;20247;-66
2023/05/13 10:10:38;;;;;;;3.42;3.10;;;21.10;99.90;;;;;;4956667;28;20191;-66
2023/05/13 10:13:14;;;;;;;4.05;3.08;;;21.20;99.90;;;;;;4948564;29;20205;-67
2023/05/13 10:15:52;;;;;;;3.70;3.15;;;21.20;99.90;;;;;;4970210;28;20405;-66
2023/05/13 10:18:18;;;;;;;4.07;3.20;;;21.30;99.90;;;;;;4955730;28;20207;-66
2023/05/13 10:20:51;;;;;;;3.90;3.38;;;21.50;99.90;;;;;;4966082;28;20223;-67
2023/05/13 10:23:23;;;;;;;3.60;2.92;;;21.70;99.90;;;;;;4952752;29;20305;-64
2023/05/13 10:25:52;;;;;;;3.40;3.10;;;22.00;99.90;;;;;;4951451;28;20192;-67
2023/05/13 10:28:21;;;;;;;3.50;3.20;;;22.40;99.90;;;;;;4954749;29;20490;-66
2023/05/13 10:30:50;;;;;;;4.00;3.13;;;22.80;99.90;;;;;;4974833;28;20170;-66
2023/05/13 10:33:16;;;;;;;5.43;3.22;;;23.10;99.90;;;;;;4969954;28;20287;-64
2023/05/13 10:36:04;;;;;;;3.40;2.90;;;23.50;99.90;;;;;;4965703;28;20181;-67
2023/05/13 10:38:49;;;;;;;3.70;3.25;;;23.90;99.90;;;;;;4969705;28;20172;-66
2023/05/13 10:41:53;;;;;;;3.60;3.30;;;24.30;99.90;;;;;;4957996;28;20226;-66
2023/05/13 10:44:19;;;;;;;3.40;3.05;;;24.60;99.90;;;;;;4946251;28;20196;-66
2023/05/13 10:46:48;;;;;;;5.65;3.08;;;24.90;99.90;;;;;;4953052;28;20409;-67
2023/05/13 10:49:17;;;;;;;3.42;3.13;;;25.00;99.90;;;;;;4956511;29;20177;-67
2023/05/13 10:51:49;;;;;;;4.25;3.17;;;25.10;99.90;;;;;;4969397;28;21314;-65
2023/05/13 10:54:22;;;;;;;3.88;2.65;;;25.20;99.90;;;;;;4955818;28;20184;-62
2023/05/13 10:56:58;;;;;;;2.20;1.80;;;25.10;99.90;;;;;;4963438;28;20195;-65
2023/05/13 10:59:29;;;;;;;2.45;1.73;;;24.80;99.90;;;;;;4952758;28;20208;-63
2023/05/13 11:01:55;;;;;;;2.63;1.80;;;24.50;99.90;;;;;;4941606;29;20196;-65
2023/05/13 11:04:21;;;;;;;1.88;1.50;;;24.20;99.90;;;;;;4943474;28;20177;-66
2023/05/13 11:06:53;;;;;;;1.90;1.70;;;24.00;99.90;;;;;;4962454;28;20178;-65
2023/05/13 11:09:21;;;;;;;2.45;1.85;;;23.70;99.90;;;;;;4952384;28;20176;-66
2023/05/13 11:11:54;;;;;;;2.90;1.88;;;23.50;99.90;;;;;;4961644;28;20200;-66
2023/05/13 11:14:26;;;;;;;1.92;1.70;;;23.20;99.90;;;;;;4970496;28;20172;-66
2023/05/13 11:17:01;;;;;;;1.98;1.60;;;22.90;99.90;;;;;;4953261;28;20207;-66
2023/05/13 11:19:34;;;;;;;1.63;1.50;;;22.50;99.90;;;;;;4948326;28;20199;-67
2023/05/13 11:22:12;;;;;;;1.77;1.65;;;22.20;99.90;;;;;;4949590;29;20201;-67
2023/05/13 11:24:38;;;;;;;2.20;1.70;;;21.80;99.90;;;;;;4971044;28;20287;-66
2023/05/13 11:27:18;;;;;;;5.03;1.80;;;21.40;99.90;;;;;;4951534;29;20340;-67
2023/05/13 11:29:55;;;;;;;3.35;1.90;;;21.00;99.90;;;;;;4953481;29;20183;-67
2023/05/13 11:32:54;;;;;;;2.10;1.90;;;20.70;99.90;;;;;;4971979;28;20276;-66
2023/05/13 11:35:30;;;;;;;2.53;2.08;;;20.20;99.90;;;;;;4965618;28;20184;-65
2023/05/13 11:37:57;;;;;;;2.05;1.90;;;19.80;99.90;;;;;;4951276;29;20216;-66
2023/05/13 11:40:28;;;;;;;3.72;2.38;;;19.40;99.90;;;;;;4964052;28;20185;-66
2023/05/13 11:42:56;;;;;;;2.78;2.15;;;19.10;99.90;;;;;;4955271;29;20196;-65
2023/05/13 11:45:23;;;;;;;2.35;2.00;;;18.80;99.90;;;;;;4970768;28;20197;-66
2023/05/13 11:47:52;;;;;;;4.20;2.83;;;18.50;99.90;;;;;;4958992;28;20182;-65
2023/05/13 11:50:20;;;;;;;3.30;2.58;;;18.30;99.90;;;;;;4953661;29;20287;-66
2023/05/13 11:52:51;;;;;;;3.75;2.60;;;18.20;99.90;;;;;;4964487;28;20216;-66
2023/05/13 11:55:35;;;;;;;4.72;2.75;;;18.10;99.90;;;;;;4954927;28;20268;-66
2023/05/13 11:58:01;;;;;;;4.22;2.90;;;18.00;99.90;;;;;;4965760;28;20264;-65
2023/05/13 12:00:30;;;;;;;3.95;2.70;;;17.90;99.90;;;;;;4970388;28;20178;-67
2023/05/13 12:02:57;;;;;;;5.82;3.05;;;17.80;99.90;;;;;;4948564;28;20263;-66
2023/05/13 12:05:23;;;;;;;3.45;3.00;;;17.70;99.90;;;;;;4962293;28;20209;-67
2023/05/13 12:07:51;;;;;;;4.28;3.13;;;17.70;99.90;;;;;;4960640;28;20205;-67
2023/05/13 12:10:17;;;;;;;4.53;3.55;;;17.60;99.90;;;;;;4937969;29;20201;-66
2023/05/13 12:12:44;;;;;;;3.45;3.03;;;17.60;99.90;;;;;;4954517;28;20460;-65
2023/05/13 12:15:20;;;;;;;4.88;3.22;;;17.60;99.90;;;;;;4972384;28;20196;-67
2023/05/13 12:17:50;;;;;;;4.50;3.55;;;17.50;99.90;;;;;;4979864;28;20213;-67
2023/05/13 12:20:15;;;;;;;5.00;3.40;;;17.50;99.90;;;;;;4950908;28;20185;-66
2023/05/13 12:22:44;;;;;;;4.38;3.33;;;17.50;99.90;;;;;;4953044;29;20204;-67
2023/05/13 12:25:35;;;;;;;3.92;3.08;;;17.50;99.90;;;;;;4965683;28;20181;-67
2023/05/13 12:28:10;;;;;;;3.13;2.83;;;17.40;99.90;;;;;;4973749;28;20192;-66
2023/05/13 12:30:40;;;;;;;3.15;2.70;;;17.40;99.90;;;;;;4967198;28;20204;-67
2023/05/13 12:33:13;;;;;;;3.60;3.05;;;17.40;99.90;;;;;;4955181;29;20231;-65
2023/05/13 12:35:39;;;;;;;3.92;3.00;;;17.40;99.90;;;;;;4956281;28;20184;-66
2023/05/13 12:38:07;;;;;;;3.67;2.78;;;17.40;99.90;;;;;;4975369;28;20327;-66
2023/05/13 12:40:33;;;;;;;3.40;3.10;;;17.50;99.90;;;;;;4965064;28;20268;-66
2023/05/13 12:43:02;;;;;;;3.53;2.78;;;17.50;99.90;;;;;;4949423;28;20295;-66
2023/05/13 12:45:36;;;;;;;3.30;2.95;;;17.50;99.90;;;;;;4948771;28;20236;-66
2023/05/13 12:48:01;;;;;;;4.18;3.45;;;17.50;99.90;;;;;;4958478;29;20263;-66
2023/05/13 12:50:30;;;;;;;4.57;3.50;;;17.50;99.90;;;;;;4958367;29;20328;-66